Time;durP1;ratioP1;P1;durP2;ratioP2;P2;SDS_P1;SDS_P2;PMS_P1;PMS_P2;Temp;Humidity;BMP_temperature;BMP_pressure;BME280_temperature;BME280_humidity;BME280_pressure;Samples;Min_cycle;Max_cycle;Signal;HPM_P1;HPM_P2
2023/08/04 00:01:16;;;;;;;21.85;7.75;;;;;;;30.47;100.00;97325.88;4751643;30;20080;-68
2023/08/04 00:03:45;;;;;;;26.17;8.07;;;;;;;30.41;100.00;97327.25;4753191;30;20461;-68
2023/08/04 00:06:15;;;;;;;18.27;7.50;;;;;;;30.39;100.00;97326.84;4755459;30;20052;-69
2023/08/04 00:08:44;;;;;;;23.08;7.20;;;;;;;30.40;100.00;97328.44;4751041;30;20056;-68
2023/08/04 00:11:13;;;;;;;19.70;6.75;;;;;;;30.42;100.00;97331.59;4752758;30;20055;-67
2023/08/04 00:13:43;;;;;;;17.92;7.55;;;;;;;30.40;100.00;97331.16;4765583;30;20538;-68
2023/08/04 00:16:12;;;;;;;17.02;6.85;;;;;;;30.39;100.00;97335.84;4752192;30;20780;-68
2023/08/04 00:18:41;;;;;;;16.13;6.90;;;;;;;30.38;100.00;97336.19;4751024;30;20059;-68
2023/08/04 00:21:11;;;;;;;17.35;6.43;;;;;;;30.38;100.00;97339.72;4761901;30;20071;-68
2023/08/04 00:23:40;;;;;;;25.38;7.20;;;;;;;30.38;100.00;97344.38;4765192;30;20071;-68
2023/08/04 00:26:09;;;;;;;36.70;9.10;;;;;;;30.34;100.00;97344.28;4756314;30;20075;-68
2023/08/04 00:28:39;;;;;;;34.40;8.40;;;;;;;30.30;100.00;97346.16;4749999;30;20055;-69
2023/08/04 00:31:08;;;;;;;31.70;7.60;;;;;;;30.27;100.00;97344.13;4745383;30;20067;-69
2023/08/04 00:33:37;;;;;;;26.20;8.10;;;;;;;30.22;100.00;97353.41;4752397;30;20043;-69
2023/08/04 00:36:07;;;;;;;28.05;7.45;;;;;;;30.21;100.00;97351.81;4751716;30;20056;-69
2023/08/04 00:38:36;;;;;;;20.88;7.10;;;;;;;30.19;100.00;97347.81;4749651;30;20130;-69
2023/08/04 00:41:05;;;;;;;21.15;7.65;;;;;;;30.20;100.00;97355.66;4748701;30;20058;-70
2023/08/04 00:43:35;;;;;;;24.77;7.88;;;;;;;30.18;100.00;97354.44;4751408;30;20468;-69
2023/08/04 00:46:04;;;;;;;16.65;7.78;;;;;;;30.17;100.00;97356.38;4752270;30;20086;-69
2023/08/04 00:48:35;;;;;;;17.17;6.57;;;;;;;30.15;100.00;97353.19;4767199;30;20055;-69
2023/08/04 00:51:06;;;;;;;21.60;8.68;;;;;;;30.15;100.00;97353.19;4750424;30;20152;-69
2023/08/04 00:53:35;;;;;;;17.45;7.63;;;;;;;30.15;100.00;97360.59;4760975;30;20206;-64
2023/08/04 00:56:05;;;;;;;18.33;7.57;;;;;;;30.16;100.00;97362.19;4734765;30;20052;-68
2023/08/04 00:58:34;;;;;;;19.80;6.95;;;;;;;30.20;100.00;97369.31;4765320;30;20070;-69
2023/08/04 01:01:04;;;;;;;24.75;7.95;;;;;;;30.23;100.00;97374.06;4747914;30;20082;-69
2023/08/04 01:03:34;;;;;;;20.52;8.70;;;;;;;30.28;100.00;97371.09;4739042;30;20121;-68
2023/08/04 01:06:22;;;;;;;30.98;9.25;;;;;;;30.33;100.00;97372.75;4751704;30;20056;-68
2023/08/04 01:09:12;;;;;;;27.88;8.43;;;;;;;30.33;100.00;97365.34;4764573;30;20133;-70
2023/08/04 01:12:11;;;;;;;29.20;9.25;;;;;;;30.41;100.00;97376.44;4746047;30;20060;-68
2023/08/04 01:14:44;;;;;;;29.88;7.90;;;;;;;30.42;100.00;97370.63;4764032;30;20577;-68
2023/08/04 01:20:15;;;;;;;24.63;8.43;;;;;;;30.53;100.00;97385.41;4761225;30;20134;-69
2023/08/04 01:22:44;;;;;;;24.70;7.97;;;;;;;30.58;100.00;97387.81;4733831;30;20071;-69
2023/08/04 01:25:14;;;;;;;34.40;8.20;;;;;;;30.65;100.00;97387.22;4747869;30;20048;-69
2023/08/04 01:27:50;;;;;;;31.88;7.88;;;;;;;30.69;100.00;97393.56;4739632;30;20165;-69
2023/08/04 01:30:21;;;;;;;26.85;9.13;;;;;;;30.71;100.00;97391.28;4747991;30;20047;-69
2023/08/04 01:32:51;;;;;;;27.77;9.23;;;;;;;30.76;100.00;97393.72;4746594;30;20141;-68
2023/08/04 01:35:21;;;;;;;24.02;8.98;;;;;;;30.78;100.00;97399.63;4736059;30;20296;-68
2023/08/04 01:37:50;;;;;;;26.05;7.97;;;;;;;30.85;100.00;97396.28;4749807;30;20083;-68
2023/08/04 01:40:20;;;;;;;25.50;8.15;;;;;;;30.88;100.00;97410.03;4749680;30;20062;-68
2023/08/04 01:42:49;;;;;;;20.42;8.50;;;;;;;30.94;100.00;97399.56;4751033;30;20047;-68
2023/08/04 01:45:19;;;;;;;24.00;8.75;;;;;;;30.96;100.00;97402.75;4752389;30;20094;-69
2023/08/04 01:47:50;;;;;;;19.67;7.47;;;;;;;31.00;100.00;97409.09;4744952;30;20059;-69
2023/08/04 01:50:21;;;;;;;22.55;8.10;;;;;;;31.08;100.00;97408.13;4750205;30;20825;-68
2023/08/04 01:52:51;;;;;;;23.10;7.50;;;;;;;31.16;100.00;97401.66;4764947;30;20083;-68
2023/08/04 01:55:20;;;;;;;23.40;7.50;;;;;;;31.24;100.00;97408.88;4764546;30;20064;-68
2023/08/04 01:57:49;;;;;;;29.08;9.20;;;;;;;31.38;100.00;97411.13;4739009;30;20051;-68
2023/08/04 02:00:19;;;;;;;21.98;8.55;;;;;;;31.58;99.64;97412.72;4747552;30;20066;-68
2023/08/04 02:02:48;;;;;;;24.95;8.75;;;;;;;31.76;96.91;97410.34;4753774;30;20056;-69
2023/08/04 02:05:18;;;;;;;23.25;8.32;;;;;;;32.01;93.64;97411.59;4735659;30;20056;-69
2023/08/04 02:07:47;;;;;;;33.92;10.45;;;;;;;32.20;93.82;97417.06;4748736;30;20547;-69
2023/08/04 02:10:17;;;;;;;25.73;8.02;;;;;;;32.37;93.03;97418.50;4749605;30;20152;-69
2023/08/04 02:12:46;;;;;;;25.85;7.88;;;;;;;32.51;91.75;97427.78;4746957;30;20155;-68
2023/08/04 02:15:16;;;;;;;27.10;8.63;;;;;;;32.65;91.47;97429.19;4741708;30;20782;-69
2023/08/04 02:17:47;;;;;;;21.67;8.13;;;;;;;32.91;89.83;97435.50;4746530;30;20052;-69
2023/08/04 02:20:17;;;;;;;25.48;9.55;;;;;;;33.04;87.81;97427.81;4739839;30;20052;-69
2023/08/04 02:22:47;;;;;;;20.83;7.95;;;;;;;33.34;86.12;97430.59;4749069;30;20070;-68
2023/08/04 02:25:17;;;;;;;26.90;9.25;;;;;;;33.33;86.05;97429.81;4751567;30;20063;-68
2023/08/04 02:27:47;;;;;;;24.58;8.20;;;;;;;33.49;84.87;97431.59;4749330;30;20057;-69
2023/08/04 02:30:18;;;;;;;31.05;9.40;;;;;;;33.58;85.97;97437.59;4748416;30;20052;-68
2023/08/04 02:32:47;;;;;;;31.02;9.95;;;;;;;33.67;84.65;97438.91;4742207;30;20430;-68
2023/08/04 02:35:19;;;;;;;23.88;9.15;;;;;;;33.74;83.19;97436.25;4751037;30;20473;-68
2023/08/04 02:37:49;;;;;;;24.58;8.13;;;;;;;33.72;83.52;97441.34;4757133;30;20158;-69
2023/08/04 02:40:18;;;;;;;28.02;10.50;;;;;;;33.59;84.08;97439.94;4754313;30;20070;-69
2023/08/04 02:43:06;;;;;;;29.95;9.20;;;;;;;33.68;83.98;97440.47;4754040;30;20056;-68
2023/08/04 02:45:36;;;;;;;24.10;9.07;;;;;;;33.87;84.57;97446.97;4766154;30;20059;-68
2023/08/04 02:48:05;;;;;;;25.98;8.93;;;;;;;34.01;83.18;97447.13;4738943;30;20071;-67
2023/08/04 02:50:35;;;;;;;22.52;8.57;;;;;;;34.08;84.39;97447.22;4752917;30;20056;-68
2023/08/04 02:53:04;;;;;;;24.35;8.57;;;;;;;34.09;81.68;97451.53;4750915;30;20071;-69
2023/08/04 02:55:34;;;;;;;24.23;8.02;;;;;;;33.90;82.88;97454.47;4742565;30;20523;-68
2023/08/04 02:58:03;;;;;;;18.33;7.88;;;;;;;33.88;83.00;97456.81;4750857;30;20125;-68
2023/08/04 03:00:33;;;;;;;19.25;8.50;;;;;;;33.58;83.81;97459.56;4755389;30;20106;-68
2023/08/04 03:03:02;;;;;;;20.58;8.90;;;;;;;33.52;84.48;97459.09;4757537;30;20060;-68
2023/08/04 03:05:35;;;;;;;27.30;10.23;;;;;;;33.60;84.33;97466.25;4748337;30;20067;-67
2023/08/04 03:08:04;;;;;;;22.45;8.18;;;;;;;33.58;85.56;97467.78;4751666;30;20059;-67
2023/08/04 03:10:34;;;;;;;28.38;8.38;;;;;;;33.55;84.96;97463.81;4751855;30;20065;-68
2023/08/04 03:13:04;;;;;;;23.25;9.07;;;;;;;33.56;85.46;97475.59;4750318;30;20056;-67
2023/08/04 03:15:34;;;;;;;28.10;10.57;;;;;;;33.59;85.79;97469.38;4759080;29;20473;-68
2023/08/04 03:18:03;;;;;;;29.30;10.50;;;;;;;33.51;86.90;97479.47;4742970;30;20143;-67
2023/08/04 03:20:40;;;;;;;28.33;9.27;;;;;;;33.48;86.21;97473.94;4762456;30;20051;-68
2023/08/04 03:23:09;;;;;;;31.63;8.90;;;;;;;33.42;86.10;97479.75;4750546;30;20134;-68
2023/08/04 03:25:39;;;;;;;22.83;8.57;;;;;;;33.41;84.55;97480.13;4753850;30;20053;-68
2023/08/04 03:28:08;;;;;;;25.05;9.70;;;;;;;33.44;84.76;97481.34;4757792;30;20079;-68
2023/08/04 03:30:38;;;;;;;19.02;8.15;;;;;;;33.52;85.62;97485.75;4770246;30;20060;-68
2023/08/04 03:33:07;;;;;;;21.92;8.80;;;;;;;33.43;86.74;97483.28;4768751;29;20064;-67
2023/08/04 03:35:37;;;;;;;20.40;8.30;;;;;;;33.46;83.99;97484.50;4757449;30;20051;-69
2023/08/04 03:38:06;;;;;;;30.23;10.32;;;;;;;33.41;83.95;97491.13;4754046;30;20448;-68
2023/08/04 03:40:36;;;;;;;27.15;8.43;;;;;;;33.41;83.02;97482.88;4762383;30;20061;-68
2023/08/04 03:43:05;;;;;;;25.10;7.85;;;;;;;33.52;82.21;97491.25;4751532;30;20052;-68
2023/08/04 03:45:35;;;;;;;21.02;9.52;;;;;;;33.68;82.26;97492.66;4752492;30;20085;-68
2023/08/04 03:48:04;;;;;;;23.73;8.10;;;;;;;33.80;81.20;97492.44;4753779;30;20139;-68
2023/08/04 03:50:34;;;;;;;21.70;7.75;;;;;;;33.79;81.24;97504.59;4754991;30;20056;-66
2023/08/04 03:53:03;;;;;;;28.67;8.98;;;;;;;33.75;81.48;97497.47;4753314;30;20491;-69
2023/08/04 03:55:33;;;;;;;27.00;9.05;;;;;;;33.88;80.36;97500.75;4753027;30;20087;-68
2023/08/04 03:58:03;;;;;;;21.05;7.50;;;;;;;33.97;81.96;97502.06;4752973;30;20060;-69
2023/08/04 04:00:32;;;;;;;25.48;9.32;;;;;;;34.16;81.91;97503.84;4739315;30;20048;-67
2023/08/04 04:03:02;;;;;;;22.77;8.27;;;;;;;34.31;81.84;97502.84;4749607;30;20652;-68
2023/08/04 04:05:31;;;;;;;16.75;7.10;;;;;;;34.29;80.72;97507.94;4747171;30;20503;-71
2023/08/04 04:08:03;;;;;;;26.83;8.05;;;;;;;34.10;79.90;97517.13;4755787;30;20064;-68
2023/08/04 04:10:32;;;;;;;23.65;7.18;;;;;;;34.12;78.62;97516.75;4753231;30;20540;-68
2023/08/04 04:13:02;;;;;;;19.75;7.65;;;;;;;34.26;80.08;97522.41;4753457;30;20056;-67
2023/08/04 04:15:32;;;;;;;19.13;7.82;;;;;;;34.45;80.71;97521.44;4754021;30;20051;-68
2023/08/04 04:18:02;;;;;;;21.90;8.05;;;;;;;34.37;79.39;97526.09;4750476;30;20071;-69
2023/08/04 04:20:31;;;;;;;17.25;7.43;;;;;;;34.40;79.53;97533.56;4764498;29;20671;-69
2023/08/04 04:23:00;;;;;;;29.85;7.63;;;;;;;34.39;79.67;97533.97;4754015;30;20056;-68
2023/08/04 04:25:30;;;;;;;25.40;8.75;;;;;;;34.70;79.27;97534.28;4765520;30;20511;-69
2023/08/04 04:27:59;;;;;;;17.42;7.40;;;;;;;34.81;77.52;97539.09;4750948;30;20148;-69
2023/08/04 04:30:28;;;;;;;19.77;7.05;;;;;;;34.80;77.35;97538.31;4736089;30;20560;-68
2023/08/04 04:32:57;;;;;;;22.10;6.30;;;;;;;34.85;77.78;97551.72;4752167;30;20171;-68
2023/08/04 04:35:27;;;;;;;22.48;7.18;;;;;;;34.92;75.70;97551.00;4750583;30;20055;-69
2023/08/04 04:37:56;;;;;;;23.60;7.53;;;;;;;35.33;78.96;97563.53;4751397;30;20090;-69
2023/08/04 04:40:26;;;;;;;20.67;7.40;;;;;;;35.47;78.59;97551.84;4736965;30;20153;-69
2023/08/04 04:42:55;;;;;;;30.13;9.18;;;;;;;35.48;76.81;97562.47;4750003;30;20060;-68
2023/08/04 04:45:24;;;;;;;30.33;8.57;;;;;;;35.52;77.50;97568.00;4750304;30;20060;-68
2023/08/04 04:47:55;;;;;;;20.50;7.97;;;;;;;35.76;76.52;97567.38;4748678;30;20145;-69
2023/08/04 04:50:27;;;;;;;21.17;7.68;;;;;;;35.75;77.32;97571.31;4752918;30;20062;-68
2023/08/04 04:52:57;;;;;;;25.80;8.65;;;;;;;36.03;75.42;97574.22;4758023;30;20567;-71
2023/08/04 04:55:27;;;;;;;20.63;7.18;;;;;;;35.93;71.71;97577.72;4735283;30;20145;-72
2023/08/04 04:57:56;;;;;;;24.27;7.85;;;;;;;36.23;73.04;97566.44;4730465;30;20449;-72
2023/08/04 05:00:26;;;;;;;24.05;8.15;;;;;;;35.98;72.61;97569.06;4752178;30;20143;-72
2023/08/04 05:02:56;;;;;;;21.70;7.45;;;;;;;36.10;72.65;97565.19;4756011;30;20152;-71
2023/08/04 05:05:25;;;;;;;18.52;7.13;;;;;;;36.38;73.95;97573.56;4748358;30;20048;-74
2023/08/04 05:07:55;;;;;;;19.25;6.55;;;;;;;36.43;70.43;97573.19;4758615;29;20419;-74
2023/08/04 05:10:25;;;;;;;16.98;6.60;;;;;;;36.58;68.73;97578.75;4750822;30;20066;-72
2023/08/04 05:12:57;;;;;;;22.60;7.13;;;;;;;36.57;71.79;97574.41;4744869;30;20060;-73
2023/08/04 05:15:26;;;;;;;19.63;6.50;;;;;;;36.42;71.62;97577.16;4746005;30;20067;-73
2023/08/04 05:17:56;;;;;;;26.08;6.50;;;;;;;36.76;74.55;97576.84;4739462;30;20056;-72
2023/08/04 05:20:25;;;;;;;19.02;6.13;;;;;;;36.93;70.58;97578.84;4740498;30;20056;-69
2023/08/04 05:22:55;;;;;;;20.48;6.32;;;;;;;36.76;70.52;97580.41;4751955;30;20052;-72
2023/08/04 05:25:25;;;;;;;21.20;7.05;;;;;;;36.87;67.91;97583.16;4745460;30;20064;-70
2023/08/04 05:27:55;;;;;;;18.55;5.68;;;;;;;36.65;67.42;97578.78;4750831;30;20062;-71
2023/08/04 05:30:24;;;;;;;17.95;5.47;;;;;;;36.56;67.62;97592.16;4739101;30;20158;-70
2023/08/04 05:32:54;;;;;;;18.45;6.10;;;;;;;37.07;68.01;97589.94;4748277;30;20143;-70
2023/08/04 05:35:23;;;;;;;17.23;5.57;;;;;;;36.81;67.58;97582.78;4750410;30;20063;-70
2023/08/04 05:37:54;;;;;;;15.57;5.63;;;;;;;36.98;67.54;97580.41;4746507;30;20071;-70
2023/08/04 05:40:23;;;;;;;13.20;5.90;;;;;;;36.73;69.79;97581.19;4739061;30;20047;-71
2023/08/04 05:42:54;;;;;;;18.33;6.53;;;;;;;36.76;69.53;97585.13;4742495;30;20047;-70
2023/08/04 05:45:23;;;;;;;20.38;7.45;;;;;;;37.04;67.10;97590.69;4746539;30;20052;-71
2023/08/04 05:47:53;;;;;;;23.13;6.32;;;;;;;37.02;67.57;97583.97;4747915;30;20500;-69
2023/08/04 05:50:22;;;;;;;18.02;6.70;;;;;;;36.55;65.51;97582.31;4742270;30;20548;-70
2023/08/04 05:52:52;;;;;;;22.23;6.97;;;;;;;36.35;67.82;97584.59;4746934;30;20052;-72
2023/08/04 05:55:41;;;;;;;25.70;6.72;;;;;;;36.72;72.50;97587.09;4745943;30;20052;-69
2023/08/04 05:58:10;;;;;;;19.08;6.40;;;;;;;36.80;70.52;97575.69;4744800;30;20048;-68
2023/08/04 06:00:40;;;;;;;18.00;5.95;;;;;;;36.78;69.41;97582.78;4740250;30;20048;-69
2023/08/04 06:03:09;;;;;;;20.63;6.07;;;;;;;36.55;69.57;97574.81;4752942;30;20052;-70
2023/08/04 06:05:39;;;;;;;20.50;6.13;;;;;;;36.65;69.16;97579.59;4747838;30;20393;-69
2023/08/04 06:08:09;;;;;;;14.60;5.53;;;;;;;36.65;68.67;97576.03;4758891;30;20048;-70
2023/08/04 06:10:38;;;;;;;24.25;6.53;;;;;;;36.86;67.84;97579.63;4742334;30;20500;-70
2023/08/04 06:13:08;;;;;;;25.98;6.63;;;;;;;37.06;70.08;97577.28;4749636;30;20052;-69
2023/08/04 06:15:37;;;;;;;17.10;6.00;;;;;;;37.02;67.05;97576.47;4746357;30;20067;-67
2023/08/04 06:18:07;;;;;;;15.52;6.15;;;;;;;37.13;66.31;97574.56;4762531;30;20357;-69
2023/08/04 06:20:36;;;;;;;21.45;6.43;;;;;;;36.95;66.44;97575.69;4763729;29;20059;-71
2023/08/04 06:23:05;;;;;;;19.70;6.07;;;;;;;36.86;71.37;97578.84;4747488;30;20661;-70
2023/08/04 06:25:34;;;;;;;16.08;5.72;;;;;;;37.04;68.21;97576.09;4761109;30;20712;-68
2023/08/04 06:28:04;;;;;;;18.85;6.18;;;;;;;37.01;65.00;97582.38;4749246;30;20733;-69
2023/08/04 06:30:34;;;;;;;25.23;6.72;;;;;;;37.09;68.54;97582.03;4749063;30;20083;-69
2023/08/04 06:33:03;;;;;;;21.58;7.82;;;;;;;37.05;67.83;97580.41;4744670;30;20660;-69
2023/08/04 06:35:32;;;;;;;16.38;6.30;;;;;;;37.24;68.66;97575.31;4751455;30;20056;-70
2023/08/04 06:38:02;;;;;;;19.48;6.93;;;;;;;37.06;64.53;97568.22;4745330;30;20151;-69
2023/08/04 06:40:32;;;;;;;20.00;7.07;;;;;;;36.84;67.89;97582.00;4760884;30;20056;-68
2023/08/04 06:43:02;;;;;;;18.98;7.22;;;;;;;37.04;66.59;97576.09;4758555;30;20056;-69
2023/08/04 06:45:31;;;;;;;31.70;7.90;;;;;;;37.04;64.97;97573.34;4748580;30;20055;-69
2023/08/04 06:48:01;;;;;;;21.77;7.35;;;;;;;37.10;68.95;97561.50;4761788;30;20060;-68
2023/08/04 06:50:31;;;;;;;18.92;6.32;;;;;;;37.15;66.32;97566.66;4751011;30;20055;-68
2023/08/04 06:53:01;;;;;;;19.23;7.18;;;;;;;37.09;65.33;97559.94;4748056;30;20056;-73
2023/08/04 06:55:30;;;;;;;16.30;6.95;;;;;;;37.19;67.25;97559.16;4734787;30;20754;-69
2023/08/04 06:58:10;;;;;;;21.25;6.28;;;;;;;37.19;65.98;97550.84;4747812;30;20054;-68
2023/08/04 07:00:39;;;;;;;19.95;6.55;;;;;;;36.74;67.29;97555.16;4748701;30;20056;-69
2023/08/04 07:03:11;;;;;;;21.90;7.03;;;;;;;36.56;65.25;97545.25;4747878;30;20533;-68
2023/08/04 07:05:41;;;;;;;18.73;7.88;;;;;;;36.73;67.13;97547.28;4743869;30;20417;-70
2023/08/04 07:08:11;;;;;;;12.48;6.20;;;;;;;36.83;64.61;97533.47;4745909;30;20052;-70
2023/08/04 07:10:40;;;;;;;18.92;6.88;;;;;;;36.83;66.10;97540.97;4744184;30;20070;-69
2023/08/04 07:13:09;;;;;;;18.50;6.60;;;;;;;36.65;64.93;97534.63;4744633;30;20080;-67
2023/08/04 07:15:39;;;;;;;18.15;7.18;;;;;;;36.75;66.41;97528.34;4758805;30;20052;-68
2023/08/04 07:18:27;;;;;;;22.30;7.18;;;;;;;36.80;67.28;97530.72;4744651;30;20682;-67
2023/08/04 07:21:06;;;;;;;16.75;7.75;;;;;;;37.00;66.26;97523.59;4746348;30;20166;-67
2023/08/04 07:23:37;;;;;;;20.42;7.43;;;;;;;37.23;68.09;97520.47;4745428;30;20622;-69
2023/08/04 07:26:07;;;;;;;18.75;6.47;;;;;;;36.84;64.47;97514.94;4748071;30;20055;-69
2023/08/04 07:28:37;;;;;;;18.20;7.72;;;;;;;36.72;65.49;97510.63;4734465;30;20056;-68
2023/08/04 07:31:09;;;;;;;18.05;6.85;;;;;;;36.84;68.14;97506.66;4746861;30;20608;-68
2023/08/04 07:33:38;;;;;;;25.55;8.48;;;;;;;37.08;69.24;97502.34;4748040;30;20082;-69
2023/08/04 07:36:08;;;;;;;17.38;6.97;;;;;;;37.01;67.76;97502.31;4746153;30;20064;-72
2023/08/04 07:38:38;;;;;;;20.52;7.00;;;;;;;36.94;68.48;97510.63;4750850;30;20143;-71
2023/08/04 07:41:07;;;;;;;16.88;7.40;;;;;;;37.12;65.44;97516.94;4746723;30;20105;-70
2023/08/04 07:43:56;;;;;;;21.33;8.07;;;;;;;36.76;64.07;97505.88;4744942;30;20079;-69
2023/08/04 07:46:29;;;;;;;15.18;6.38;;;;;;;36.44;68.06;97503.06;4744858;30;20055;-69
2023/08/04 07:49:18;;;;;;;21.63;7.13;;;;;;;36.26;68.52;97502.22;4746531;30;20064;-69
2023/08/04 07:51:48;;;;;;;16.13;7.55;;;;;;;36.63;68.02;97515.72;4746765;30;20120;-69
2023/08/04 07:54:18;;;;;;;22.45;8.85;;;;;;;36.82;67.67;97509.03;4743156;30;20055;-69
2023/08/04 07:56:48;;;;;;;22.08;7.47;;;;;;;36.85;65.25;97511.00;4746881;30;20056;-69
2023/08/04 07:59:17;;;;;;;20.42;8.20;;;;;;;36.77;66.81;97504.72;4750098;30;20095;-69
2023/08/04 08:01:46;;;;;;;19.33;7.03;;;;;;;36.40;65.88;97510.53;4747743;30;20051;-69
2023/08/04 08:04:16;;;;;;;21.50;7.82;;;;;;;36.37;65.02;97505.81;4748402;30;20060;-69
2023/08/04 08:09:34;;;;;;;24.63;7.47;;;;;;;36.18;67.10;97492.38;4752970;30;20056;-69
2023/08/04 08:12:04;;;;;;;22.35;7.90;;;;;;;36.38;71.76;97488.06;4751704;30;20067;-69
2023/08/04 08:14:33;;;;;;;26.23;8.30;;;;;;;36.58;70.85;97496.78;4765692;29;20790;-69
2023/08/04 08:17:03;;;;;;;22.40;8.02;;;;;;;36.47;67.55;97490.44;4750302;30;20059;-71
2023/08/04 08:19:33;;;;;;;23.52;7.95;;;;;;;36.50;66.50;97483.38;4759107;30;20066;-69
2023/08/04 08:22:02;;;;;;;21.63;7.65;;;;;;;36.28;69.03;97482.53;4752026;30;20056;-69
2023/08/04 08:24:31;;;;;;;23.63;8.93;;;;;;;35.89;68.18;97482.41;4754553;30;20064;-69
2023/08/04 08:27:00;;;;;;;27.50;9.57;;;;;;;36.16;70.45;97480.16;4752335;30;20055;-68
2023/08/04 08:29:29;;;;;;;18.35;8.23;;;;;;;36.38;69.38;97476.25;4742376;30;20061;-69
2023/08/04 08:31:58;;;;;;;25.80;9.98;;;;;;;36.28;70.11;97480.59;4747397;30;20052;-69
2023/08/04 08:34:46;;;;;;;23.38;8.90;;;;;;;36.52;67.95;97481.78;4753881;30;20055;-69
2023/08/04 08:37:15;;;;;;;20.67;8.38;;;;;;;36.54;70.42;97484.16;4752285;30;20052;-69
2023/08/04 08:39:45;;;;;;;22.10;7.75;;;;;;;36.41;69.61;97490.06;4753977;30;20067;-68
2023/08/04 08:42:14;;;;;;;17.67;7.35;;;;;;;36.29;69.31;97484.13;4761405;30;20060;-68
2023/08/04 08:44:43;;;;;;;15.38;7.47;;;;;;;36.52;69.35;97479.00;4750959;30;20097;-68
2023/08/04 08:47:14;;;;;;;19.60;7.88;;;;;;;36.64;71.95;97472.38;4755466;30;20052;-68
2023/08/04 08:49:55;;;;;;;20.67;7.15;;;;;;;36.67;67.31;97464.09;4752809;30;20047;-68
2023/08/04 08:52:31;;;;;;;16.45;7.80;;;;;;;36.71;67.08;97469.59;4743761;30;20052;-69
2023/08/04 08:55:03;;;;;;;15.00;7.53;;;;;;;36.60;66.63;97468.81;4757633;30;20076;-68
2023/08/04 08:57:33;;;;;;;21.30;8.13;;;;;;;36.59;62.93;97464.44;4745921;30;20052;-69
2023/08/04 09:00:22;;;;;;;20.48;8.30;;;;;;;36.64;63.23;97475.13;4745723;30;20149;-69
2023/08/04 09:02:52;;;;;;;17.52;8.43;;;;;;;36.64;65.41;97469.63;4748557;30;20058;-69
2023/08/04 09:05:21;;;;;;;19.08;8.43;;;;;;;36.60;64.47;97466.06;4762791;30;21437;-69
2023/08/04 09:07:52;;;;;;;25.52;8.88;;;;;;;36.64;63.02;97470.41;4749692;30;20066;-69
2023/08/04 09:10:22;;;;;;;17.88;7.60;;;;;;;36.70;64.40;97471.56;4750474;30;20053;-69
2023/08/04 09:12:56;;;;;;;19.65;8.10;;;;;;;36.62;64.82;97471.97;4750521;30;20056;-69
2023/08/04 09:15:48;;;;;;;22.95;8.30;;;;;;;36.60;66.14;97466.84;4749900;30;20047;-69
2023/08/04 09:18:32;;;;;;;24.13;7.90;;;;;;;36.37;64.83;97463.66;4745221;30;20505;-69
2023/08/04 09:21:13;;;;;;;18.00;7.65;;;;;;;36.48;67.28;97465.22;4746139;30;20064;-69
2023/08/04 09:23:47;;;;;;;20.15;7.60;;;;;;;36.57;65.60;97464.03;4747121;30;20060;-69
2023/08/04 09:26:16;;;;;;;18.77;8.15;;;;;;;36.48;65.98;97458.91;4747370;30;20064;-69
2023/08/04 09:29:04;;;;;;;14.60;6.57;;;;;;;36.24;65.82;97454.97;5071163;27;20572;-69
2023/08/04 09:31:47;;;;;;;19.73;7.75;;;;;;;36.32;66.08;97453.00;5054380;28;20944;-74
2023/08/04 09:34:16;;;;;;;12.15;6.60;;;;;;;36.33;66.24;97451.81;5058077;28;20055;-70
2023/08/04 09:36:48;;;;;;;17.02;7.28;;;;;;;36.30;66.21;97460.88;5055480;28;20123;-70
2023/08/04 09:39:46;;;;;;;19.85;6.93;;;;;;;36.22;68.44;97462.03;5059226;28;20044;-69
2023/08/04 09:42:15;;;;;;;18.77;7.40;;;;;;;36.20;68.88;97470.72;5053284;28;20141;-69
2023/08/04 09:44:51;;;;;;;17.42;7.15;;;;;;;36.19;67.36;97466.38;5062415;28;20050;-69
2023/08/04 09:47:28;;;;;;;15.35;6.75;;;;;;;36.20;67.59;97469.94;5051683;28;20140;-70
2023/08/04 09:49:58;;;;;;;20.55;8.43;;;;;;;36.23;65.78;97464.41;5080544;28;20622;-70
2023/08/04 09:52:30;;;;;;;19.63;7.20;;;;;;;36.20;66.78;97476.22;5062818;28;20049;-70
2023/08/04 09:55:00;;;;;;;16.73;7.68;;;;;;;36.22;66.34;97465.59;5062887;28;20044;-70
2023/08/04 09:57:29;;;;;;;18.48;7.38;;;;;;;36.22;67.46;97462.81;5059562;28;20492;-70
2023/08/04 10:00:00;;;;;;;14.20;6.97;;;;;;;36.12;67.93;97460.03;5052906;28;20056;-70
2023/08/04 10:02:31;;;;;;;15.52;6.57;;;;;;;36.06;67.58;97461.59;5067971;28;20052;-70
2023/08/04 10:05:01;;;;;;;18.55;6.18;;;;;;;35.98;67.98;97460.78;5051239;28;20055;-69
2023/08/04 10:07:31;;;;;;;17.25;6.65;;;;;;;35.85;70.98;97467.84;5053543;28;20059;-69
2023/08/04 10:10:03;;;;;;;15.98;5.70;;;;;;;35.82;67.84;97460.31;5064642;28;20040;-69
2023/08/04 10:12:35;;;;;;;14.85;5.97;;;;;;;35.73;66.13;97454.38;5073054;28;20055;-68
2023/08/04 10:15:05;;;;;;;14.88;5.75;;;;;;;35.64;68.21;97457.50;5064641;28;20040;-68
2023/08/04 10:17:35;;;;;;;17.90;5.40;;;;;;;35.57;68.81;97452.72;5074937;28;20141;-71
2023/08/04 10:20:06;;;;;;;19.63;6.32;;;;;;;35.55;71.25;97454.28;5067257;28;20055;-71
2023/08/04 10:22:43;;;;;;;17.60;5.63;;;;;;;35.48;72.74;97454.25;5071395;28;20044;-71
2023/08/04 10:25:15;;;;;;;11.07;4.80;;;;;;;35.38;74.29;97455.00;5069222;28;20055;-70
2023/08/04 10:27:50;;;;;;;14.05;6.60;;;;;;;35.43;74.97;97455.41;5060444;28;20051;-70
2023/08/04 10:30:21;;;;;;;16.58;5.45;;;;;;;35.45;74.87;97439.28;5093273;27;20689;-71
2023/08/04 10:33:13;;;;;;;15.77;6.07;;;;;;;35.37;73.00;97434.91;5088464;27;20290;-71
2023/08/04 10:36:12;;;;;;;17.42;4.95;;;;;;;35.27;73.54;97443.94;5096449;28;20047;-70
2023/08/04 10:38:47;;;;;;;12.55;5.63;;;;;;;35.26;76.45;97428.59;5075134;28;20044;-71
2023/08/04 10:41:16;;;;;;;18.42;6.50;;;;;;;35.26;74.95;97433.28;5083953;28;20268;-70
2023/08/04 10:44:09;;;;;;;14.27;6.43;;;;;;;35.20;74.65;97432.06;5061476;28;20044;-71
2023/08/04 10:46:40;;;;;;;17.80;5.28;;;;;;;35.17;74.95;97424.59;5082003;28;20048;-70
2023/08/04 10:49:46;;;;;;;16.90;5.35;;;;;;;35.07;73.62;97429.63;5066418;28;20050;-70
2023/08/04 10:52:15;;;;;;;13.90;5.13;;;;;;;35.11;73.99;97418.63;5062890;28;20664;-69
2023/08/04 10:55:04;;;;;;;16.20;5.97;;;;;;;35.14;72.29;97418.63;5068693;28;20470;-70
2023/08/04 10:57:35;;;;;;;16.00;5.25;;;;;;;35.14;71.22;97415.13;5064249;28;20159;-75
2023/08/04 11:00:24;;;;;;;20.02;4.40;;;;;;;35.11;72.60;97415.88;5081182;28;20127;-74
2023/08/04 11:02:54;;;;;;;13.13;4.40;;;;;;;35.04;69.92;97413.88;5082875;28;20048;-71
2023/08/04 11:05:41;;;;;;;18.90;4.68;;;;;;;35.10;71.31;97408.78;5083313;28;20082;-74
2023/08/04 11:08:13;;;;;;;24.58;6.32;;;;;;;35.04;69.50;97407.59;5059976;28;20055;-73
2023/08/04 11:10:54;;;;;;;15.48;3.97;;;;;;;35.08;70.05;97395.41;5050646;28;20105;-69
2023/08/04 11:13:25;;;;;;;16.08;4.55;;;;;;;35.18;71.18;97387.63;5094401;28;20063;-70
2023/08/04 11:15:56;;;;;;;13.65;4.25;;;;;;;35.13;68.44;97394.25;5076346;28;20055;-71
2023/08/04 11:18:32;;;;;;;13.43;3.88;;;;;;;35.07;68.18;97393.03;5062436;28;20117;-73
2023/08/04 11:21:03;;;;;;;15.45;5.13;;;;;;;35.04;69.63;97388.31;5082028;28;20795;-72
2023/08/04 11:23:32;;;;;;;15.80;4.20;;;;;;;35.01;70.74;97389.84;5083780;28;20058;-71
2023/08/04 11:26:02;;;;;;;17.35;4.18;;;;;;;35.00;69.46;97393.00;5081522;28;20165;-72
2023/08/04 11:28:32;;;;;;;16.40;4.63;;;;;;;34.98;68.07;97398.09;5061265;28;20136;-69
2023/08/04 11:31:05;;;;;;;16.98;5.47;;;;;;;34.99;67.72;97394.19;5081099;28;20063;-77
2023/08/04 11:33:42;;;;;;;20.38;4.47;;;;;;;35.00;69.14;97388.31;5080588;28;20133;-70
2023/08/04 11:36:11;;;;;;;16.88;4.88;;;;;;;35.10;68.99;97393.06;5062433;28;20051;-69
2023/08/04 11:38:40;;;;;;;15.45;4.55;;;;;;;35.17;69.82;97392.34;5060405;28;20357;-69
2023/08/04 11:41:12;;;;;;;11.80;4.13;;;;;;;35.15;71.62;97391.91;5080538;28;20052;-73
2023/08/04 11:43:42;;;;;;;16.85;5.20;;;;;;;35.17;69.89;97402.56;5049167;28;20060;-69
2023/08/04 11:46:30;;;;;;;19.43;5.30;;;;;;;35.18;70.99;97395.88;4712684;28;10000122;-69
2023/08/04 11:49:06;;;;;;;15.60;4.97;;;;;;;35.18;69.62;97406.91;5074613;28;20315;-66
2023/08/04 11:51:36;;;;;;;15.65;5.07;;;;;;;35.13;71.46;97411.56;5079514;28;20044;-71